createdAt,value
2017-08-01T00:02:06.410Z,21.76
2017-08-01T00:04:32.320Z,22.28
2017-08-01T00:06:59.235Z,21.95
2017-08-01T00:09:25.616Z,22.35
2017-08-01T00:11:52.280Z,22.30
2017-08-01T00:14:20.148Z,22.26
2017-08-01T00:16:46.164Z,22.50
2017-08-01T00:19:12.242Z,22.58
2017-08-01T00:21:38.206Z,22.63
2017-08-01T00:24:04.646Z,22.47
2017-08-01T00:26:30.580Z,22.52
2017-08-01T00:28:56.475Z,22.46
2017-08-01T00:31:22.549Z,22.45
2017-08-01T00:33:49.246Z,22.39
2017-08-01T00:36:15.210Z,22.40
2017-08-01T00:38:42.295Z,22.55
2017-08-01T00:41:09.373Z,22.81
2017-08-01T00:43:35.412Z,22.95
2017-08-01T00:46:08.412Z,22.76
2017-08-01T00:48:34.465Z,22.86
2017-08-01T00:51:00.678Z,22.89
2017-08-01T00:53:28.365Z,22.58
2017-08-01T00:55:57.973Z,22.54
2017-08-01T00:58:24.577Z,22.57
2017-08-01T01:00:50.563Z,22.67
2017-08-01T01:03:17.288Z,22.80
2017-08-01T01:05:43.292Z,22.61
2017-08-01T01:08:09.121Z,22.45
2017-08-01T01:10:35.017Z,22.42
2017-08-01T01:13:01.432Z,22.49
2017-08-01T01:15:27.562Z,22.37
2017-08-01T01:17:54.144Z,22.61
2017-08-01T01:20:21.086Z,22.68
2017-08-01T01:22:47.002Z,22.70
2017-08-01T01:25:12.997Z,22.61
2017-08-01T01:27:39.969Z,22.84
2017-08-01T01:30:05.936Z,22.78
2017-08-01T01:32:33.488Z,22.47
2017-08-01T01:34:59.733Z,22.64
2017-08-01T01:37:25.649Z,22.75
2017-08-01T01:39:52.204Z,22.79
2017-08-01T01:42:18.182Z,22.08
2017-08-01T01:44:44.084Z,21.73
2017-08-01T01:47:10.773Z,22.08
2017-08-01T01:49:36.701Z,22.12
2017-08-01T01:52:02.646Z,22.13
2017-08-01T01:54:28.692Z,22.12
2017-08-01T01:56:54.797Z,22.02
2017-08-01T01:59:21.637Z,21.99
2017-08-01T02:01:47.660Z,21.55
2017-08-01T02:04:17.359Z,21.24
2017-08-01T02:06:43.377Z,21.24
2017-08-01T02:09:09.312Z,21.14
2017-08-01T02:11:35.352Z,21.06
2017-08-01T02:14:01.278Z,21.01
2017-08-01T02:16:27.264Z,20.96
2017-08-01T02:18:53.257Z,20.85
2017-08-01T02:21:19.190Z,20.69
2017-08-01T02:23:45.074Z,20.41
2017-08-01T02:26:10.952Z,20.41
2017-08-01T02:28:36.808Z,20.62
2017-08-01T02:31:02.761Z,20.64
2017-08-01T02:33:28.693Z,20.64
2017-08-01T02:35:56.225Z,20.54
2017-08-01T02:38:22.117Z,20.58
2017-08-01T02:40:48.204Z,20.66
2017-08-01T02:43:14.090Z,20.54
2017-08-01T02:45:39.910Z,20.51
2017-08-01T02:48:07.418Z,20.64
2017-08-01T02:50:34.824Z,20.67
2017-08-01T02:53:04.118Z,20.51
2017-08-01T02:55:29.991Z,20.35
2017-08-01T02:57:55.823Z,20.36
2017-08-01T03:00:21.713Z,20.37
2017-08-01T03:02:47.616Z,20.38
2017-08-01T03:05:13.469Z,20.24
2017-08-01T03:07:39.942Z,20.03
2017-08-01T03:10:05.778Z,20.18
2017-08-01T03:12:32.535Z,20.27
2017-08-01T03:14:58.417Z,20.05
2017-08-01T03:17:24.250Z,20.14
2017-08-01T03:19:50.084Z,20.21
2017-08-01T03:22:17.493Z,20.23
2017-08-01T03:24:43.494Z,20.21
2017-08-01T03:27:10.211Z,20.01
2017-08-01T03:29:36.257Z,20.10
2017-08-01T03:32:02.276Z,19.90
2017-08-01T03:34:28.953Z,19.89
2017-08-01T03:36:55.709Z,19.88
2017-08-01T03:39:22.703Z,19.93
2017-08-01T03:41:48.688Z,19.72
2017-08-01T03:44:14.573Z,19.93
2017-08-01T03:46:41.938Z,19.88
2017-08-01T03:49:09.766Z,19.76
2017-08-01T03:51:40.714Z,19.55
2017-08-01T03:54:06.684Z,19.62
2017-08-01T03:56:32.618Z,19.73
2017-08-01T03:59:00.346Z,19.68
2017-08-01T04:01:26.328Z,19.63
2017-08-01T04:03:56.042Z,19.71
2017-08-01T04:06:22.024Z,19.70
2017-08-01T04:08:47.858Z,19.73
2017-08-01T04:11:14.280Z,19.58
2017-08-01T04:13:40.423Z,19.68
2017-08-01T04:16:07.925Z,19.46
2017-08-01T04:18:34.345Z,19.69
2017-08-01T04:21:00.284Z,19.55
2017-08-01T04:23:26.245Z,19.70
2017-08-01T04:25:52.829Z,19.75
2017-08-01T04:28:20.321Z,19.78
2017-08-01T04:30:46.197Z,19.76
2017-08-01T04:33:12.281Z,19.85
2017-08-01T04:35:38.253Z,20.07
2017-08-01T04:38:07.847Z,20.10
2017-08-01T04:40:34.558Z,20.24
2017-08-01T04:43:00.511Z,20.18
2017-08-01T04:45:26.521Z,20.22
2017-08-01T04:47:52.375Z,20.33
2017-08-01T04:50:19.086Z,20.28
2017-08-01T04:52:45.227Z,20.48
2017-08-01T04:55:11.421Z,20.39
2017-08-01T04:57:37.343Z,20.17
2017-08-01T05:00:03.284Z,20.39
2017-08-01T05:02:29.212Z,20.41
2017-08-01T05:04:55.343Z,20.45
2017-08-01T05:07:22.060Z,20.22
2017-08-01T05:09:47.997Z,20.56
2017-08-01T05:12:14.736Z,20.55
2017-08-01T05:14:41.350Z,20.61
2017-08-01T05:17:07.180Z,20.62
2017-08-01T05:19:33.643Z,20.81
2017-08-01T05:21:59.621Z,20.70
2017-08-01T05:24:25.524Z,20.68
2017-08-01T05:26:51.642Z,20.66
2017-08-01T05:29:17.778Z,20.96
2017-08-01T05:31:43.730Z,20.85
2017-08-01T05:34:10.566Z,21.05
2017-08-01T05:36:36.550Z,20.96
2017-08-01T05:39:02.441Z,20.97
2017-08-01T05:41:29.295Z,20.97
2017-08-01T05:43:59.834Z,21.16
2017-08-01T05:46:26.932Z,20.94
2017-08-01T05:48:55.987Z,20.82
2017-08-01T05:51:23.881Z,20.58
2017-08-01T05:53:49.734Z,20.89
2017-08-01T05:56:15.594Z,20.96
2017-08-01T05:58:42.181Z,20.84
2017-08-01T06:01:08.118Z,20.58
2017-08-01T06:03:34.049Z,20.55
2017-08-01T06:06:00.104Z,20.88
2017-08-01T06:08:27.314Z,21.06
2017-08-01T06:10:53.215Z,20.77
2017-08-01T06:13:19.194Z,20.70
2017-08-01T06:15:45.271Z,21.05
2017-08-01T06:18:11.302Z,20.99
2017-08-01T06:20:37.247Z,21.40
2017-08-01T06:23:03.066Z,21.42
2017-08-01T06:25:29.042Z,21.65
2017-08-01T06:27:55.049Z,21.61
2017-08-01T06:30:20.954Z,21.91
2017-08-01T06:32:46.970Z,21.88
2017-08-01T06:35:12.960Z,22.05
2017-08-01T06:37:38.919Z,22.18
2017-08-01T06:40:05.562Z,22.32
2017-08-01T06:42:31.519Z,22.40
2017-08-01T06:44:57.437Z,21.86
2017-08-01T06:47:24.142Z,22.61
2017-08-01T06:49:50.183Z,22.84
2017-08-01T06:52:16.358Z,22.97
2017-08-01T06:54:42.385Z,23.21
2017-08-01T06:57:08.545Z,23.07
2017-08-01T06:59:34.469Z,22.93
2017-08-01T07:02:00.546Z,23.54
2017-08-01T07:04:26.526Z,23.37
2017-08-01T07:06:52.575Z,23.41
2017-08-01T07:09:18.567Z,23.70
2017-08-01T07:11:45.142Z,23.35
2017-08-01T07:14:11.303Z,23.82
2017-08-01T07:16:37.259Z,23.91
2017-08-01T07:19:03.165Z,23.65
2017-08-01T07:21:29.204Z,23.67
2017-08-01T07:23:55.281Z,24.23
2017-08-01T07:26:21.800Z,24.23
2017-08-01T07:28:47.686Z,24.09
2017-08-01T07:31:13.820Z,24.51
2017-08-01T07:33:39.681Z,24.41
2017-08-01T07:36:05.681Z,24.62
2017-08-01T07:38:31.594Z,24.81
2017-08-01T07:40:58.482Z,25.12
2017-08-01T07:43:24.307Z,25.05
2017-08-01T07:45:50.152Z,24.82
2017-08-01T07:48:15.998Z,24.94
2017-08-01T07:50:41.904Z,24.98
2017-08-01T07:53:07.779Z,25.31
2017-08-01T07:55:33.712Z,25.14
2017-08-01T07:57:59.653Z,25.06
2017-08-01T08:00:25.821Z,25.22
2017-08-01T08:02:51.826Z,25.28
2017-08-01T08:05:17.730Z,25.40
2017-08-01T08:07:44.559Z,25.58
2017-08-01T08:10:11.994Z,25.89
2017-08-01T08:12:37.822Z,25.82
2017-08-01T08:15:04.411Z,25.83
2017-08-01T08:17:30.359Z,25.73
2017-08-01T08:19:56.269Z,25.66
2017-08-01T08:22:22.105Z,25.91
2017-08-01T08:24:47.950Z,26.35
2017-08-01T08:27:13.783Z,25.94
2017-08-01T08:29:39.639Z,25.78
2017-08-01T08:32:05.548Z,26.15
2017-08-01T08:34:31.366Z,26.11
2017-08-01T08:36:57.217Z,26.28
2017-08-01T08:39:23.063Z,26.56
2017-08-01T08:41:48.916Z,26.66
2017-08-01T08:44:14.918Z,26.64
2017-08-01T08:46:40.813Z,26.58
2017-08-01T08:49:06.804Z,27.11
2017-08-01T08:51:32.731Z,27.08
2017-08-01T08:53:58.647Z,27.05
2017-08-01T08:56:24.678Z,27.02
2017-08-01T08:58:50.590Z,27.31
2017-08-01T09:01:17.255Z,26.95
2017-08-01T09:03:43.080Z,26.57
2017-08-01T09:06:08.924Z,27.55
2017-08-01T09:08:34.734Z,27.90
2017-08-01T09:11:01.315Z,27.80
2017-08-01T09:13:27.314Z,27.90
2017-08-01T09:15:54.000Z,28.59
2017-08-01T09:18:20.030Z,28.71
2017-08-01T09:20:46.071Z,28.57
2017-08-01T09:23:11.934Z,28.92
2017-08-01T09:25:37.805Z,28.98
2017-08-01T09:28:03.837Z,29.03
2017-08-01T09:30:29.857Z,29.68
2017-08-01T09:32:55.798Z,29.17
2017-08-01T09:35:21.730Z,29.25
2017-08-01T09:37:47.687Z,29.15
2017-08-01T09:40:13.595Z,30.02
2017-08-01T09:42:39.540Z,30.48
2017-08-01T09:45:05.497Z,31.23
2017-08-01T09:47:31.405Z,29.13
2017-08-01T09:49:57.405Z,29.24
2017-08-01T09:52:24.034Z,29.10
2017-08-01T09:54:49.942Z,30.16
2017-08-01T09:57:15.989Z,31.47
2017-08-01T09:59:41.844Z,30.90
2017-08-01T10:02:07.706Z,29.89
2017-08-01T10:04:33.814Z,29.99
2017-08-01T10:06:59.725Z,29.91
2017-08-01T10:09:25.687Z,29.70
2017-08-01T10:11:51.730Z,30.29
2017-08-01T10:14:17.726Z,29.96
2017-08-01T10:16:43.771Z,30.24
2017-08-01T10:19:09.722Z,28.95
2017-08-01T10:21:35.780Z,29.92
2017-08-01T10:24:01.855Z,30.69
2017-08-01T10:26:27.748Z,29.75
2017-08-01T10:28:53.709Z,29.91
2017-08-01T10:31:19.641Z,30.83
2017-08-01T10:33:45.610Z,31.46
2017-08-01T10:36:11.479Z,29.50
2017-08-01T10:38:37.685Z,30.13
2017-08-01T10:41:03.730Z,30.51
2017-08-01T10:43:30.414Z,31.53
2017-08-01T10:45:56.495Z,32.58
2017-08-01T10:48:22.445Z,31.81
2017-08-01T10:50:48.448Z,30.34
2017-08-01T10:53:14.442Z,29.65
2017-08-01T10:55:40.365Z,30.10
2017-08-01T10:58:06.253Z,29.97
2017-08-01T11:00:32.300Z,30.20
2017-08-01T11:02:58.159Z,30.45
2017-08-01T11:05:24.060Z,30.88
2017-08-01T11:07:49.904Z,31.24
2017-08-01T11:10:15.901Z,32.20
2017-08-01T11:12:41.977Z,33.54
2017-08-01T11:15:07.963Z,33.20
2017-08-01T11:17:33.913Z,32.86
2017-08-01T11:19:59.786Z,33.05
2017-08-01T11:22:25.665Z,33.93
2017-08-01T11:24:51.554Z,35.04
2017-08-01T11:27:17.381Z,34.82
2017-08-01T11:29:43.299Z,34.69
2017-08-01T11:32:09.281Z,35.43
2017-08-01T11:34:36.073Z,35.15
2017-08-01T11:37:01.961Z,35.42
2017-08-01T11:39:27.842Z,34.79
2017-08-01T11:41:53.860Z,35.86
2017-08-01T11:44:19.847Z,32.70
2017-08-01T11:46:45.940Z,33.31
2017-08-01T11:49:11.865Z,34.18
2017-08-01T11:51:37.719Z,35.01
2017-08-01T11:54:04.055Z,34.73
2017-08-01T11:56:30.774Z,33.78
2017-08-01T11:58:56.803Z,34.83
2017-08-01T12:01:22.657Z,33.24
2017-08-01T12:03:48.599Z,33.13
2017-08-01T12:06:14.439Z,34.82
2017-08-01T12:08:40.328Z,35.06
2017-08-01T12:11:06.646Z,35.23
2017-08-01T12:13:33.321Z,36.12
2017-08-01T12:15:59.261Z,35.59
2017-08-01T12:18:25.138Z,34.78
2017-08-01T12:20:51.040Z,35.11
2017-08-01T12:23:17.133Z,35.48
2017-08-01T12:25:43.016Z,35.53
2017-08-01T12:28:08.871Z,36.00
2017-08-01T12:30:34.808Z,36.62
2017-08-01T12:33:00.766Z,35.43
2017-08-01T12:35:26.754Z,36.47
2017-08-01T12:37:55.869Z,35.01
2017-08-01T12:42:59.372Z,34.86
2017-08-01T12:45:25.277Z,35.96
2017-08-01T12:47:51.220Z,35.25
2017-08-01T12:50:17.064Z,33.92
2017-08-01T12:52:43.083Z,33.58
2017-08-01T12:55:09.033Z,32.99
2017-08-01T12:57:35.440Z,32.79
2017-08-01T13:00:01.349Z,31.86
2017-08-01T13:02:27.957Z,32.98
2017-08-01T13:04:53.813Z,33.16
2017-08-01T13:07:19.817Z,32.91
2017-08-01T13:09:45.677Z,32.25
2017-08-01T13:12:11.585Z,33.30
2017-08-01T13:14:37.561Z,33.82
2017-08-01T13:17:03.528Z,33.78
2017-08-01T13:19:29.573Z,34.32
2017-08-01T13:21:55.491Z,34.40
2017-08-01T13:24:21.427Z,34.42
2017-08-01T13:26:48.195Z,33.98
2017-08-01T13:29:14.043Z,33.40
2017-08-01T13:31:40.063Z,33.53
2017-08-01T13:34:06.164Z,35.28
2017-08-01T13:36:32.079Z,33.08
2017-08-01T13:38:57.915Z,35.11
2017-08-01T13:41:23.804Z,35.68
2017-08-01T13:43:49.731Z,34.69
2017-08-01T13:46:15.595Z,34.34
2017-08-01T13:48:41.641Z,34.29
2017-08-01T13:51:07.629Z,34.29
2017-08-01T13:53:33.504Z,34.31
2017-08-01T13:56:00.285Z,33.56
2017-08-01T13:58:26.161Z,33.20
2017-08-01T14:00:52.120Z,32.94
2017-08-01T14:03:18.034Z,32.90
2017-08-01T14:05:43.982Z,32.52
2017-08-01T14:08:09.859Z,32.54
2017-08-01T14:10:35.819Z,32.10
2017-08-01T14:13:01.701Z,30.96
2017-08-01T14:15:27.625Z,30.54
2017-08-01T14:17:53.593Z,28.25
2017-08-01T14:20:19.572Z,25.63
2017-08-01T14:22:45.493Z,26.06
2017-08-01T14:25:11.927Z,26.21
2017-08-01T14:27:37.768Z,26.26
2017-08-01T14:30:03.715Z,27.95
2017-08-01T14:32:29.593Z,28.39
2017-08-01T14:34:55.529Z,28.36
2017-08-01T14:37:21.433Z,29.89
2017-08-01T14:39:47.850Z,29.37
2017-08-01T14:42:13.776Z,28.91
2017-08-01T14:44:41.499Z,29.13
2017-08-01T14:47:07.357Z,28.18
2017-08-01T14:49:33.278Z,28.14
2017-08-01T14:51:59.298Z,28.65
2017-08-01T14:54:25.233Z,29.16
2017-08-01T14:56:51.150Z,29.35
2017-08-01T14:59:17.174Z,28.57
2017-08-01T15:01:43.191Z,28.28
2017-08-01T15:04:09.226Z,27.99
2017-08-01T15:06:35.149Z,27.56
2017-08-01T15:09:01.087Z,27.08
2017-08-01T15:11:27.002Z,26.33
2017-08-01T15:13:53.514Z,26.37
2017-08-01T15:16:19.353Z,26.63
2017-08-01T15:18:45.225Z,27.50
2017-08-01T15:21:11.107Z,28.63
2017-08-01T15:23:37.069Z,29.53
2017-08-01T15:26:02.952Z,28.64
2017-08-01T15:28:28.931Z,28.97
2017-08-01T15:30:55.609Z,28.98
2017-08-01T15:33:21.603Z,29.93
2017-08-01T15:35:47.606Z,29.81
2017-08-01T15:38:13.705Z,30.41
2017-08-01T15:40:39.537Z,30.28
2017-08-01T15:43:05.460Z,29.72
2017-08-01T15:45:31.509Z,30.54
2017-08-01T15:47:59.219Z,29.61
2017-08-01T15:50:25.125Z,29.32
2017-08-01T15:52:51.176Z,28.26
2017-08-01T15:55:17.062Z,27.44
2017-08-01T15:57:43.201Z,27.60
2017-08-01T16:00:09.263Z,27.53
2017-08-01T16:02:36.285Z,28.86
2017-08-01T16:05:02.949Z,29.69
2017-08-01T16:07:31.065Z,28.78
2017-08-01T16:09:57.052Z,27.60
2017-08-01T16:12:23.456Z,27.88
2017-08-01T16:14:49.968Z,27.45
2017-08-01T16:17:16.714Z,27.06
2017-08-01T16:19:43.549Z,26.95
2017-08-01T16:22:09.565Z,26.78
2017-08-01T16:24:35.433Z,26.39
2017-08-01T16:27:01.390Z,25.87
2017-08-01T16:29:27.287Z,25.53
2017-08-01T16:31:53.179Z,25.79
2017-08-01T16:34:19.097Z,25.70
2017-08-01T16:36:45.092Z,26.33
2017-08-01T16:39:11.015Z,26.44
2017-08-01T16:41:36.910Z,26.31
2017-08-01T16:44:02.821Z,26.06
2017-08-01T16:46:29.369Z,25.96
2017-08-01T16:48:55.425Z,25.41
2017-08-01T16:51:22.210Z,25.81
2017-08-01T16:53:48.070Z,26.16
2017-08-01T16:56:13.893Z,26.25
2017-08-01T16:58:39.970Z,26.08
2017-08-01T17:01:06.386Z,25.84
2017-08-01T17:03:32.370Z,25.96
2017-08-01T17:05:58.178Z,25.81
2017-08-01T17:08:24.232Z,25.30
2017-08-01T17:10:50.094Z,25.23
2017-08-01T17:13:15.991Z,25.26
2017-08-01T17:15:41.923Z,25.53
2017-08-01T17:18:07.847Z,25.76
2017-08-01T17:20:33.749Z,25.70
2017-08-01T17:22:59.608Z,25.22
2017-08-01T17:25:25.621Z,25.64
2017-08-01T17:27:53.442Z,25.44
2017-08-01T17:30:19.267Z,25.18
2017-08-01T17:32:45.397Z,25.30
2017-08-01T17:35:11.224Z,25.42
2017-08-01T17:37:37.080Z,25.04
2017-08-01T17:40:04.985Z,25.07
2017-08-01T17:42:30.842Z,25.14
2017-08-01T17:44:56.845Z,25.30
2017-08-01T17:47:22.901Z,25.34
2017-08-01T17:49:48.810Z,25.43
2017-08-01T17:52:14.730Z,25.46
2017-08-01T17:54:40.685Z,25.52
2017-08-01T17:57:06.647Z,25.49
2017-08-01T17:59:32.570Z,24.80
2017-08-01T18:01:58.477Z,24.40
2017-08-01T18:04:24.422Z,24.29
2017-08-01T18:06:50.394Z,24.33
2017-08-01T18:09:16.398Z,24.45
2017-08-01T18:11:42.368Z,24.57
2017-08-01T18:14:09.065Z,24.58
2017-08-01T18:16:34.976Z,24.44
2017-08-01T18:19:00.924Z,24.48
2017-08-01T18:21:26.836Z,24.15
2017-08-01T18:23:52.856Z,24.42
2017-08-01T18:26:20.605Z,24.59
2017-08-01T18:28:46.500Z,24.20
2017-08-01T18:31:12.363Z,24.10
2017-08-01T18:33:38.325Z,24.07
2017-08-01T18:36:04.162Z,23.67
2017-08-01T18:38:30.167Z,23.76
2017-08-01T18:40:56.679Z,23.53
2017-08-01T18:43:22.668Z,23.56
2017-08-01T18:45:48.763Z,23.35
2017-08-01T18:48:14.728Z,23.18
2017-08-01T18:50:40.659Z,23.25
2017-08-01T18:53:06.579Z,23.11
2017-08-01T18:55:32.688Z,22.88
2017-08-01T18:57:58.564Z,22.87
2017-08-01T19:00:24.431Z,22.65
2017-08-01T19:02:50.374Z,22.64
2017-08-01T19:05:16.197Z,22.59
2017-08-01T19:07:42.039Z,22.52
2017-08-01T19:10:07.912Z,22.79
2017-08-01T19:12:33.757Z,22.77
2017-08-01T19:14:59.784Z,22.51
2017-08-01T19:17:25.772Z,22.66
2017-08-01T19:19:51.630Z,22.70
2017-08-01T19:22:17.564Z,22.69
2017-08-01T19:24:43.465Z,22.46
2017-08-01T19:27:09.407Z,22.51
2017-08-01T19:29:35.315Z,22.45
2017-08-01T19:32:01.386Z,22.31
2017-08-01T19:34:27.345Z,22.31
2017-08-01T19:36:53.457Z,22.62
2017-08-01T19:39:19.396Z,22.70
2017-08-01T19:41:46.005Z,22.38
2017-08-01T19:44:12.152Z,22.24
2017-08-01T19:46:38.421Z,22.11
2017-08-01T19:49:04.332Z,22.13
2017-08-01T19:51:30.277Z,22.42
2017-08-01T19:53:57.035Z,22.32
2017-08-01T19:56:23.055Z,22.42
2017-08-01T19:58:49.825Z,21.99
2017-08-01T20:01:15.826Z,22.23
2017-08-01T20:03:45.681Z,21.92
2017-08-01T20:06:11.644Z,21.73
2017-08-01T20:08:39.302Z,21.74
2017-08-01T20:11:06.158Z,21.64
2017-08-01T20:13:34.211Z,21.63
2017-08-01T20:16:00.325Z,21.64
2017-08-01T20:18:26.352Z,21.58
2017-08-01T20:20:52.368Z,21.58
2017-08-01T20:23:19.319Z,21.56
2017-08-01T20:25:46.005Z,21.59
2017-08-01T20:28:11.963Z,21.52
2017-08-01T20:30:38.827Z,21.56
2017-08-01T20:33:06.534Z,21.49
2017-08-01T20:35:32.521Z,21.29
2017-08-01T20:37:58.585Z,21.14
2017-08-01T20:40:25.586Z,21.14
2017-08-01T20:42:52.335Z,21.24
2017-08-01T20:45:18.209Z,21.26
2017-08-01T20:47:44.914Z,21.31
2017-08-01T20:50:12.266Z,21.37
2017-08-01T20:52:38.267Z,21.34
2017-08-01T20:55:04.249Z,21.53
2017-08-01T20:57:30.212Z,21.50
2017-08-01T20:59:56.199Z,21.34
2017-08-01T21:02:22.839Z,21.20
2017-08-01T21:04:50.547Z,21.11
2017-08-01T21:07:17.487Z,21.26
2017-08-01T21:09:45.052Z,21.27
2017-08-01T21:12:12.021Z,21.26
2017-08-01T21:14:38.114Z,21.31
2017-08-01T21:17:04.109Z,21.28
2017-08-01T21:19:30.148Z,21.31
2017-08-01T21:21:58.000Z,21.26
2017-08-01T21:24:24.913Z,21.22
2017-08-01T21:26:50.877Z,21.22
2017-08-01T21:29:17.541Z,21.17
2017-08-01T21:31:43.525Z,21.25
2017-08-01T21:34:09.395Z,21.24
2017-08-01T21:36:36.259Z,21.16
2017-08-01T21:39:03.026Z,21.17
2017-08-01T21:41:28.954Z,21.19
2017-08-01T21:43:54.876Z,21.15
2017-08-01T21:46:20.886Z,21.28
2017-08-01T21:48:46.780Z,21.21
2017-08-01T21:51:13.527Z,21.25
2017-08-01T21:53:39.472Z,21.14
2017-08-01T21:56:06.280Z,21.30
2017-08-01T21:58:32.612Z,21.19
2017-08-01T22:01:00.082Z,21.29
2017-08-01T22:03:26.284Z,21.24
2017-08-01T22:05:57.075Z,21.27
2017-08-01T22:08:23.896Z,21.18
2017-08-01T22:10:49.939Z,21.16
2017-08-01T22:13:15.868Z,21.10
2017-08-01T22:15:41.828Z,20.96
2017-08-01T22:18:07.912Z,20.96
2017-08-01T22:20:33.840Z,20.98
2017-08-01T22:22:59.967Z,20.92
2017-08-01T22:25:27.008Z,20.89
2017-08-01T22:27:52.941Z,20.92
2017-08-01T22:30:19.760Z,20.86
2017-08-01T22:32:45.638Z,20.82
2017-08-01T22:35:12.477Z,20.79
2017-08-01T22:37:38.516Z,20.74
2017-08-01T22:40:04.617Z,20.75
2017-08-01T22:42:31.405Z,20.71
2017-08-01T22:45:02.490Z,20.73
2017-08-01T22:47:28.477Z,20.72
2017-08-01T22:49:56.357Z,20.77
2017-08-01T22:52:22.326Z,20.61
2017-08-01T22:54:49.091Z,20.54
2017-08-01T22:57:17.635Z,20.55
2017-08-01T22:59:47.441Z,20.68
2017-08-01T23:02:13.372Z,20.68
2017-08-01T23:04:40.116Z,20.37
2017-08-01T23:07:06.243Z,20.23
2017-08-01T23:09:32.142Z,20.20
2017-08-01T23:11:58.110Z,20.34
2017-08-01T23:14:23.983Z,20.39
2017-08-01T23:16:51.703Z,20.35
2017-08-01T23:19:18.819Z,20.38
2017-08-01T23:21:44.683Z,20.28
2017-08-01T23:24:10.589Z,20.09
2017-08-01T23:26:36.509Z,20.23
2017-08-01T23:29:02.472Z,20.18
2017-08-01T23:31:29.276Z,20.20
2017-08-01T23:33:55.340Z,20.14
2017-08-01T23:36:22.131Z,20.08
2017-08-01T23:38:48.158Z,20.16
2017-08-01T23:41:14.153Z,20.18
2017-08-01T23:43:40.836Z,20.15
2017-08-01T23:46:06.834Z,20.12
2017-08-01T23:48:32.755Z,20.12
2017-08-01T23:50:58.700Z,20.08
2017-08-01T23:53:24.708Z,19.87
2017-08-01T23:55:50.761Z,19.84
2017-08-01T23:58:16.819Z,19.88
